Terminal Aerodrome Forecast
Issued by NWS Pittsburgh, PA

Current Version | Previous Version | Graphics & Text | Print | Product List | Glossary On
Versions: 1 2 3 4 5 6 7 8 9 10 11 12 13 14 15 16 17 18 19 20 21 22 23 24
020
FTUS41 KPBZ 212331
TAFPIT
TAF
KPIT 212331Z 2200/2306 32009KT P6SM SCT100 BKN250
     FM220900 33005KT P6SM BKN015
     FM221700 01007KT P6SM BKN035=

USA.gov is the U.S. government's official web portal to all federal, state and local government web resources and services.